sensor_id;sensor_type;location;lat;lon;timestamp;P1;durP1;ratioP1;P2;durP2;ratioP2
21798;SDS011;24973;47.178;15.316;2023-01-09T00:02:05;3.27;;;2.67;;
21798;SDS011;24973;47.178;15.316;2023-01-09T00:04:54;3.20;;;2.27;;
21798;SDS011;24973;47.178;15.316;2023-01-09T00:07:43;4.00;;;2.60;;
21798;SDS011;24973;47.178;15.316;2023-01-09T00:10:32;2.47;;;2.27;;
21798;SDS011;24973;47.178;15.316;2023-01-09T00:13:22;2.97;;;2.77;;
21798;SDS011;24973;47.178;15.316;2023-01-09T00:16:10;3.47;;;3.17;;
21798;SDS011;24973;47.178;15.316;2023-01-09T00:19:00;3.23;;;2.90;;
21798;SDS011;24973;47.178;15.316;2023-01-09T00:21:48;5.77;;;4.70;;
21798;SDS011;24973;47.178;15.316;2023-01-09T00:24:37;4.67;;;3.37;;
21798;SDS011;24973;47.178;15.316;2023-01-09T00:27:28;6.43;;;3.60;;
21798;SDS011;24973;47.178;15.316;2023-01-09T00:30:19;6.47;;;4.60;;
21798;SDS011;24973;47.178;15.316;2023-01-09T00:33:08;8.63;;;3.87;;
21798;SDS011;24973;47.178;15.316;2023-01-09T00:35:57;4.53;;;4.10;;
21798;SDS011;24973;47.178;15.316;2023-01-09T00:38:45;5.23;;;3.40;;
21798;SDS011;24973;47.178;15.316;2023-01-09T00:41:35;5.17;;;3.60;;
21798;SDS011;24973;47.178;15.316;2023-01-09T00:44:28;4.77;;;3.57;;
21798;SDS011;24973;47.178;15.316;2023-01-09T00:47:22;5.03;;;3.30;;
21798;SDS011;24973;47.178;15.316;2023-01-09T00:50:15;4.67;;;3.73;;
21798;SDS011;24973;47.178;15.316;2023-01-09T00:53:10;3.43;;;2.93;;
21798;SDS011;24973;47.178;15.316;2023-01-09T00:56:03;3.17;;;2.87;;
21798;SDS011;24973;47.178;15.316;2023-01-09T00:58:56;4.47;;;3.60;;
21798;SDS011;24973;47.178;15.316;2023-01-09T01:01:44;3.90;;;3.13;;
21798;SDS011;24973;47.178;15.316;2023-01-09T01:04:35;5.90;;;4.30;;
21798;SDS011;24973;47.178;15.316;2023-01-09T01:07:41;5.30;;;3.20;;
21798;SDS011;24973;47.178;15.316;2023-01-09T01:10:30;4.80;;;2.87;;
21798;SDS011;24973;47.178;15.316;2023-01-09T01:13:19;4.87;;;3.03;;
21798;SDS011;24973;47.178;15.316;2023-01-09T01:16:08;4.17;;;2.73;;
21798;SDS011;24973;47.178;15.316;2023-01-09T01:18:59;4.67;;;2.80;;
21798;SDS011;24973;47.178;15.316;2023-01-09T01:21:50;3.77;;;3.10;;
21798;SDS011;24973;47.178;15.316;2023-01-09T01:24:38;4.70;;;3.03;;
21798;SDS011;24973;47.178;15.316;2023-01-09T01:27:27;3.60;;;3.27;;
21798;SDS011;24973;47.178;15.316;2023-01-09T01:30:16;3.93;;;3.17;;
21798;SDS011;24973;47.178;15.316;2023-01-09T01:33:06;4.93;;;3.37;;
21798;SDS011;24973;47.178;15.316;2023-01-09T01:35:59;5.40;;;3.80;;
21798;SDS011;24973;47.178;15.316;2023-01-09T01:38:51;11.37;;;3.83;;
21798;SDS011;24973;47.178;15.316;2023-01-09T01:41:40;5.73;;;3.23;;
21798;SDS011;24973;47.178;15.316;2023-01-09T01:47:55;5.10;;;3.27;;
21798;SDS011;24973;47.178;15.316;2023-01-09T01:50:50;5.73;;;3.23;;
21798;SDS011;24973;47.178;15.316;2023-01-09T01:53:43;5.83;;;3.83;;
21798;SDS011;24973;47.178;15.316;2023-01-09T01:56:38;3.97;;;2.50;;
21798;SDS011;24973;47.178;15.316;2023-01-09T01:59:32;6.00;;;3.47;;
21798;SDS011;24973;47.178;15.316;2023-01-09T02:02:26;4.67;;;3.23;;
21798;SDS011;24973;47.178;15.316;2023-01-09T02:05:18;8.03;;;3.90;;
21798;SDS011;24973;47.178;15.316;2023-01-09T02:08:07;8.13;;;2.97;;
21798;SDS011;24973;47.178;15.316;2023-01-09T02:10:56;4.50;;;3.10;;
21798;SDS011;24973;47.178;15.316;2023-01-09T02:13:46;5.03;;;3.47;;
21798;SDS011;24973;47.178;15.316;2023-01-09T02:16:37;3.77;;;2.67;;
21798;SDS011;24973;47.178;15.316;2023-01-09T02:19:48;9.23;;;3.03;;
21798;SDS011;24973;47.178;15.316;2023-01-09T02:27:03;6.20;;;3.87;;
21798;SDS011;24973;47.178;15.316;2023-01-09T02:30:31;5.87;;;3.20;;
21798;SDS011;24973;47.178;15.316;2023-01-09T02:33:34;5.47;;;3.37;;
21798;SDS011;24973;47.178;15.316;2023-01-09T02:36:37;5.30;;;3.10;;
21798;SDS011;24973;47.178;15.316;2023-01-09T02:39:34;4.83;;;3.33;;
21798;SDS011;24973;47.178;15.316;2023-01-09T02:42:29;6.43;;;3.47;;
21798;SDS011;24973;47.178;15.316;2023-01-09T02:45:20;5.83;;;3.40;;
21798;SDS011;24973;47.178;15.316;2023-01-09T02:48:11;7.73;;;4.33;;
21798;SDS011;24973;47.178;15.316;2023-01-09T02:51:02;5.00;;;3.67;;
21798;SDS011;24973;47.178;15.316;2023-01-09T02:54:15;5.47;;;3.20;;
21798;SDS011;24973;47.178;15.316;2023-01-09T02:57:22;5.53;;;3.43;;
21798;SDS011;24973;47.178;15.316;2023-01-09T03:00:30;5.57;;;3.87;;
21798;SDS011;24973;47.178;15.316;2023-01-09T03:03:27;6.57;;;3.60;;
21798;SDS011;24973;47.178;15.316;2023-01-09T03:06:23;3.53;;;3.27;;
21798;SDS011;24973;47.178;15.316;2023-01-09T03:09:24;4.97;;;3.73;;
21798;SDS011;24973;47.178;15.316;2023-01-09T03:12:16;4.07;;;2.97;;
21798;SDS011;24973;47.178;15.316;2023-01-09T03:15:09;5.20;;;3.83;;
21798;SDS011;24973;47.178;15.316;2023-01-09T03:18:00;4.63;;;3.10;;
21798;SDS011;24973;47.178;15.316;2023-01-09T03:20:54;3.10;;;2.40;;
21798;SDS011;24973;47.178;15.316;2023-01-09T03:23:52;6.50;;;2.97;;
21798;SDS011;24973;47.178;15.316;2023-01-09T03:26:43;5.23;;;3.30;;
21798;SDS011;24973;47.178;15.316;2023-01-09T03:29:32;4.63;;;3.23;;
21798;SDS011;24973;47.178;15.316;2023-01-09T03:32:20;8.57;;;3.40;;
21798;SDS011;24973;47.178;15.316;2023-01-09T03:35:09;4.47;;;2.90;;
21798;SDS011;24973;47.178;15.316;2023-01-09T03:37:59;3.90;;;3.20;;
21798;SDS011;24973;47.178;15.316;2023-01-09T03:40:48;7.03;;;3.37;;
21798;SDS011;24973;47.178;15.316;2023-01-09T03:43:37;3.73;;;3.10;;
21798;SDS011;24973;47.178;15.316;2023-01-09T03:46:25;4.83;;;2.97;;
21798;SDS011;24973;47.178;15.316;2023-01-09T03:49:14;5.83;;;3.40;;
21798;SDS011;24973;47.178;15.316;2023-01-09T03:52:03;5.40;;;3.00;;
21798;SDS011;24973;47.178;15.316;2023-01-09T03:54:53;5.50;;;4.13;;
21798;SDS011;24973;47.178;15.316;2023-01-09T03:57:42;4.57;;;3.50;;
21798;SDS011;24973;47.178;15.316;2023-01-09T04:00:31;4.53;;;2.97;;
21798;SDS011;24973;47.178;15.316;2023-01-09T04:03:19;4.10;;;2.97;;
21798;SDS011;24973;47.178;15.316;2023-01-09T04:06:08;3.73;;;3.43;;
21798;SDS011;24973;47.178;15.316;2023-01-09T04:08:57;5.73;;;3.73;;
21798;SDS011;24973;47.178;15.316;2023-01-09T04:11:47;6.87;;;2.73;;
21798;SDS011;24973;47.178;15.316;2023-01-09T04:14:36;7.40;;;4.23;;
21798;SDS011;24973;47.178;15.316;2023-01-09T04:17:25;6.30;;;3.27;;
21798;SDS011;24973;47.178;15.316;2023-01-09T04:20:13;5.17;;;3.70;;
21798;SDS011;24973;47.178;15.316;2023-01-09T04:23:03;5.87;;;3.63;;
21798;SDS011;24973;47.178;15.316;2023-01-09T04:25:52;6.23;;;2.90;;
21798;SDS011;24973;47.178;15.316;2023-01-09T04:28:42;6.63;;;3.33;;
21798;SDS011;24973;47.178;15.316;2023-01-09T04:31:30;8.33;;;3.60;;
21798;SDS011;24973;47.178;15.316;2023-01-09T04:34:19;5.37;;;3.47;;
21798;SDS011;24973;47.178;15.316;2023-01-09T04:37:11;3.40;;;2.77;;
21798;SDS011;24973;47.178;15.316;2023-01-09T04:39:59;4.63;;;3.50;;
21798;SDS011;24973;47.178;15.316;2023-01-09T04:42:51;7.00;;;3.33;;
21798;SDS011;24973;47.178;15.316;2023-01-09T04:45:41;4.47;;;3.47;;
21798;SDS011;24973;47.178;15.316;2023-01-09T04:48:30;3.67;;;3.30;;
21798;SDS011;24973;47.178;15.316;2023-01-09T04:51:19;3.53;;;3.23;;
21798;SDS011;24973;47.178;15.316;2023-01-09T04:54:07;4.20;;;2.90;;
21798;SDS011;24973;47.178;15.316;2023-01-09T04:56:56;4.27;;;2.90;;
21798;SDS011;24973;47.178;15.316;2023-01-09T04:59:47;4.57;;;3.03;;
21798;SDS011;24973;47.178;15.316;2023-01-09T05:02:39;8.20;;;3.10;;
21798;SDS011;24973;47.178;15.316;2023-01-09T05:05:27;4.23;;;2.73;;
21798;SDS011;24973;47.178;15.316;2023-01-09T05:08:16;5.23;;;2.90;;
21798;SDS011;24973;47.178;15.316;2023-01-09T05:11:05;3.90;;;2.67;;
21798;SDS011;24973;47.178;15.316;2023-01-09T05:13:54;4.27;;;2.77;;
21798;SDS011;24973;47.178;15.316;2023-01-09T05:16:42;3.57;;;2.57;;
21798;SDS011;24973;47.178;15.316;2023-01-09T05:19:33;2.73;;;2.43;;
21798;SDS011;24973;47.178;15.316;2023-01-09T05:22:21;4.80;;;2.73;;
21798;SDS011;24973;47.178;15.316;2023-01-09T05:25:10;3.33;;;2.73;;
21798;SDS011;24973;47.178;15.316;2023-01-09T05:27:59;4.23;;;3.27;;
21798;SDS011;24973;47.178;15.316;2023-01-09T05:30:47;4.47;;;3.37;;
21798;SDS011;24973;47.178;15.316;2023-01-09T05:33:36;3.67;;;2.90;;
21798;SDS011;24973;47.178;15.316;2023-01-09T05:36:26;4.20;;;3.50;;
21798;SDS011;24973;47.178;15.316;2023-01-09T05:39:15;4.63;;;2.80;;
21798;SDS011;24973;47.178;15.316;2023-01-09T05:42:04;2.40;;;2.20;;
21798;SDS011;24973;47.178;15.316;2023-01-09T05:44:52;2.60;;;2.23;;
21798;SDS011;24973;47.178;15.316;2023-01-09T05:47:42;3.03;;;2.67;;
21798;SDS011;24973;47.178;15.316;2023-01-09T05:50:32;2.90;;;2.70;;
21798;SDS011;24973;47.178;15.316;2023-01-09T05:53:22;4.30;;;2.97;;
21798;SDS011;24973;47.178;15.316;2023-01-09T05:56:10;5.43;;;3.53;;
21798;SDS011;24973;47.178;15.316;2023-01-09T05:58:59;4.57;;;2.90;;
21798;SDS011;24973;47.178;15.316;2023-01-09T06:01:48;7.67;;;3.53;;
21798;SDS011;24973;47.178;15.316;2023-01-09T06:04:37;4.73;;;3.60;;
21798;SDS011;24973;47.178;15.316;2023-01-09T06:07:26;7.67;;;3.20;;
21798;SDS011;24973;47.178;15.316;2023-01-09T06:10:16;6.40;;;4.13;;
21798;SDS011;24973;47.178;15.316;2023-01-09T06:13:05;6.20;;;4.00;;
21798;SDS011;24973;47.178;15.316;2023-01-09T06:15:53;4.33;;;3.30;;
21798;SDS011;24973;47.178;15.316;2023-01-09T06:18:42;4.27;;;3.87;;
21798;SDS011;24973;47.178;15.316;2023-01-09T06:21:31;8.30;;;4.27;;
21798;SDS011;24973;47.178;15.316;2023-01-09T06:24:20;9.03;;;5.40;;
21798;SDS011;24973;47.178;15.316;2023-01-09T06:27:10;4.30;;;3.87;;
21798;SDS011;24973;47.178;15.316;2023-01-09T06:29:59;4.23;;;2.77;;
21798;SDS011;24973;47.178;15.316;2023-01-09T06:32:48;4.17;;;3.07;;
21798;SDS011;24973;47.178;15.316;2023-01-09T06:35:37;4.00;;;3.30;;
21798;SDS011;24973;47.178;15.316;2023-01-09T06:38:25;3.33;;;3.03;;
21798;SDS011;24973;47.178;15.316;2023-01-09T06:41:14;3.50;;;2.47;;
21798;SDS011;24973;47.178;15.316;2023-01-09T06:44:04;4.23;;;2.80;;
21798;SDS011;24973;47.178;15.316;2023-01-09T06:46:53;5.07;;;2.90;;
21798;SDS011;24973;47.178;15.316;2023-01-09T06:49:42;3.03;;;2.73;;
21798;SDS011;24973;47.178;15.316;2023-01-09T06:52:31;3.70;;;2.30;;
21798;SDS011;24973;47.178;15.316;2023-01-09T06:55:19;6.23;;;3.20;;
21798;SDS011;24973;47.178;15.316;2023-01-09T06:58:08;2.00;;;1.90;;
21798;SDS011;24973;47.178;15.316;2023-01-09T07:00:58;3.07;;;2.73;;
21798;SDS011;24973;47.178;15.316;2023-01-09T07:03:47;4.20;;;3.20;;
21798;SDS011;24973;47.178;15.316;2023-01-09T07:06:36;5.37;;;3.77;;
21798;SDS011;24973;47.178;15.316;2023-01-09T07:09:25;5.20;;;3.37;;
21798;SDS011;24973;47.178;15.316;2023-01-09T07:12:13;5.83;;;3.97;;
21798;SDS011;24973;47.178;15.316;2023-01-09T07:15:02;4.17;;;3.30;;
21798;SDS011;24973;47.178;15.316;2023-01-09T07:17:54;3.50;;;2.70;;
21798;SDS011;24973;47.178;15.316;2023-01-09T07:20:42;4.57;;;3.40;;
21798;SDS011;24973;47.178;15.316;2023-01-09T07:23:31;9.20;;;2.90;;
21798;SDS011;24973;47.178;15.316;2023-01-09T07:26:20;5.00;;;3.40;;
21798;SDS011;24973;47.178;15.316;2023-01-09T07:29:09;5.20;;;3.30;;
21798;SDS011;24973;47.178;15.316;2023-01-09T07:31:58;6.07;;;3.53;;
21798;SDS011;24973;47.178;15.316;2023-01-09T07:34:48;7.23;;;4.33;;
21798;SDS011;24973;47.178;15.316;2023-01-09T07:37:37;4.60;;;3.50;;
21798;SDS011;24973;47.178;15.316;2023-01-09T07:40:26;4.23;;;3.53;;
21798;SDS011;24973;47.178;15.316;2023-01-09T07:43:15;3.80;;;3.43;;
21798;SDS011;24973;47.178;15.316;2023-01-09T07:46:04;4.00;;;2.60;;
21798;SDS011;24973;47.178;15.316;2023-01-09T07:48:52;3.53;;;3.17;;
21798;SDS011;24973;47.178;15.316;2023-01-09T07:51:43;4.80;;;2.63;;
21798;SDS011;24973;47.178;15.316;2023-01-09T07:54:33;4.70;;;3.93;;
21798;SDS011;24973;47.178;15.316;2023-01-09T07:57:22;5.17;;;3.83;;
21798;SDS011;24973;47.178;15.316;2023-01-09T08:00:11;5.63;;;4.13;;
21798;SDS011;24973;47.178;15.316;2023-01-09T08:03:01;12.80;;;4.73;;
21798;SDS011;24973;47.178;15.316;2023-01-09T08:05:49;8.10;;;4.97;;
21798;SDS011;24973;47.178;15.316;2023-01-09T08:08:39;5.83;;;4.20;;
21798;SDS011;24973;47.178;15.316;2023-01-09T08:11:30;8.20;;;4.03;;
21798;SDS011;24973;47.178;15.316;2023-01-09T08:14:18;4.77;;;3.37;;
21798;SDS011;24973;47.178;15.316;2023-01-09T08:17:07;5.47;;;4.10;;
21798;SDS011;24973;47.178;15.316;2023-01-09T08:19:57;3.03;;;2.50;;
21798;SDS011;24973;47.178;15.316;2023-01-09T08:22:46;3.47;;;3.17;;
21798;SDS011;24973;47.178;15.316;2023-01-09T08:25:40;4.47;;;4.03;;
21798;SDS011;24973;47.178;15.316;2023-01-09T08:28:29;6.37;;;4.70;;
21798;SDS011;24973;47.178;15.316;2023-01-09T08:31:18;6.10;;;3.43;;
21798;SDS011;24973;47.178;15.316;2023-01-09T08:34:07;3.97;;;3.37;;
21798;SDS011;24973;47.178;15.316;2023-01-09T08:36:56;4.93;;;3.23;;
21798;SDS011;24973;47.178;15.316;2023-01-09T08:39:45;4.87;;;3.10;;
21798;SDS011;24973;47.178;15.316;2023-01-09T08:42:35;4.77;;;3.17;;
21798;SDS011;24973;47.178;15.316;2023-01-09T08:45:42;3.03;;;2.60;;
21798;SDS011;24973;47.178;15.316;2023-01-09T08:48:48;4.03;;;3.60;;
21798;SDS011;24973;47.178;15.316;2023-01-09T08:51:37;3.70;;;3.30;;
21798;SDS011;24973;47.178;15.316;2023-01-09T08:54:25;4.17;;;3.33;;
21798;SDS011;24973;47.178;15.316;2023-01-09T08:57:16;3.57;;;3.27;;
21798;SDS011;24973;47.178;15.316;2023-01-09T09:00:07;3.70;;;3.10;;
21798;SDS011;24973;47.178;15.316;2023-01-09T09:02:58;4.77;;;3.60;;
21798;SDS011;24973;47.178;15.316;2023-01-09T09:05:48;3.00;;;2.53;;
21798;SDS011;24973;47.178;15.316;2023-01-09T09:08:37;6.23;;;3.93;;
21798;SDS011;24973;47.178;15.316;2023-01-09T09:11:25;3.80;;;3.33;;
21798;SDS011;24973;47.178;15.316;2023-01-09T09:14:14;3.37;;;2.67;;
21798;SDS011;24973;47.178;15.316;2023-01-09T09:17:22;4.80;;;3.27;;
21798;SDS011;24973;47.178;15.316;2023-01-09T09:20:11;6.60;;;4.60;;
21798;SDS011;24973;47.178;15.316;2023-01-09T09:22:59;9.03;;;4.83;;
21798;SDS011;24973;47.178;15.316;2023-01-09T09:25:48;8.77;;;4.73;;
21798;SDS011;24973;47.178;15.316;2023-01-09T09:28:37;11.77;;;6.27;;
21798;SDS011;24973;47.178;15.316;2023-01-09T09:31:26;11.13;;;5.80;;
21798;SDS011;24973;47.178;15.316;2023-01-09T09:34:16;10.60;;;6.70;;
21798;SDS011;24973;47.178;15.316;2023-01-09T09:37:05;13.87;;;6.93;;
21798;SDS011;24973;47.178;15.316;2023-01-09T09:39:54;11.00;;;9.73;;
21798;SDS011;24973;47.178;15.316;2023-01-09T09:42:47;16.47;;;11.47;;
21798;SDS011;24973;47.178;15.316;2023-01-09T09:46:10;20.03;;;10.30;;
21798;SDS011;24973;47.178;15.316;2023-01-09T09:49:11;12.73;;;9.47;;
21798;SDS011;24973;47.178;15.316;2023-01-09T09:52:07;10.07;;;8.77;;
21798;SDS011;24973;47.178;15.316;2023-01-09T09:55:11;10.60;;;7.60;;
21798;SDS011;24973;47.178;15.316;2023-01-09T09:58:05;15.10;;;9.37;;
21798;SDS011;24973;47.178;15.316;2023-01-09T10:01:07;11.10;;;9.03;;
21798;SDS011;24973;47.178;15.316;2023-01-09T10:04:02;14.87;;;8.23;;
21798;SDS011;24973;47.178;15.316;2023-01-09T10:06:57;14.80;;;8.77;;
21798;SDS011;24973;47.178;15.316;2023-01-09T10:09:52;16.07;;;9.07;;
21798;SDS011;24973;47.178;15.316;2023-01-09T10:12:47;16.43;;;7.43;;
21798;SDS011;24973;47.178;15.316;2023-01-09T10:15:41;13.83;;;8.83;;
21798;SDS011;24973;47.178;15.316;2023-01-09T10:18:41;11.70;;;7.80;;
21798;SDS011;24973;47.178;15.316;2023-01-09T10:21:41;47.97;;;28.73;;
21798;SDS011;24973;47.178;15.316;2023-01-09T10:24:43;25.40;;;16.77;;
21798;SDS011;24973;47.178;15.316;2023-01-09T10:27:58;24.17;;;14.40;;
21798;SDS011;24973;47.178;15.316;2023-01-09T10:31:02;23.37;;;13.93;;
21798;SDS011;24973;47.178;15.316;2023-01-09T10:34:00;22.77;;;11.90;;
21798;SDS011;24973;47.178;15.316;2023-01-09T10:37:03;17.47;;;11.23;;
21798;SDS011;24973;47.178;15.316;2023-01-09T10:39:59;20.57;;;10.83;;
21798;SDS011;24973;47.178;15.316;2023-01-09T10:42:56;12.77;;;9.27;;
21798;SDS011;24973;47.178;15.316;2023-01-09T10:45:51;14.27;;;8.40;;
21798;SDS011;24973;47.178;15.316;2023-01-09T10:48:43;12.27;;;7.43;;
21798;SDS011;24973;47.178;15.316;2023-01-09T10:51:38;10.07;;;7.43;;
21798;SDS011;24973;47.178;15.316;2023-01-09T10:54:34;13.03;;;7.07;;
21798;SDS011;24973;47.178;15.316;2023-01-09T10:57:33;13.87;;;7.60;;
21798;SDS011;24973;47.178;15.316;2023-01-09T11:00:28;7.37;;;6.43;;
21798;SDS011;24973;47.178;15.316;2023-01-09T11:03:18;7.20;;;6.03;;
21798;SDS011;24973;47.178;15.316;2023-01-09T11:06:13;8.07;;;5.20;;
21798;SDS011;24973;47.178;15.316;2023-01-09T11:09:09;6.07;;;5.17;;
21798;SDS011;24973;47.178;15.316;2023-01-09T11:12:00;8.67;;;6.70;;
21798;SDS011;24973;47.178;15.316;2023-01-09T11:15:21;7.10;;;5.93;;
21798;SDS011;24973;47.178;15.316;2023-01-09T11:18:18;11.63;;;5.90;;
21798;SDS011;24973;47.178;15.316;2023-01-09T11:21:11;9.17;;;6.93;;
21798;SDS011;24973;47.178;15.316;2023-01-09T11:27:21;9.83;;;6.67;;
21798;SDS011;24973;47.178;15.316;2023-01-09T11:30:13;11.73;;;7.37;;
21798;SDS011;24973;47.178;15.316;2023-01-09T11:33:13;8.60;;;7.67;;
21798;SDS011;24973;47.178;15.316;2023-01-09T11:36:06;8.97;;;7.17;;
21798;SDS011;24973;47.178;15.316;2023-01-09T11:38:58;9.00;;;7.83;;
21798;SDS011;24973;47.178;15.316;2023-01-09T11:41:51;10.83;;;7.47;;
21798;SDS011;24973;47.178;15.316;2023-01-09T11:44:41;9.90;;;7.70;;
21798;SDS011;24973;47.178;15.316;2023-01-09T11:47:36;10.87;;;7.70;;
21798;SDS011;24973;47.178;15.316;2023-01-09T11:50:28;7.73;;;6.63;;
21798;SDS011;24973;47.178;15.316;2023-01-09T11:53:18;12.80;;;7.03;;
21798;SDS011;24973;47.178;15.316;2023-01-09T11:56:08;8.63;;;6.67;;
21798;SDS011;24973;47.178;15.316;2023-01-09T11:59:07;12.70;;;7.10;;
21798;SDS011;24973;47.178;15.316;2023-01-09T12:02:15;10.23;;;6.93;;
21798;SDS011;24973;47.178;15.316;2023-01-09T12:05:37;10.47;;;7.47;;
21798;SDS011;24973;47.178;15.316;2023-01-09T12:08:37;14.43;;;7.07;;
21798;SDS011;24973;47.178;15.316;2023-01-09T12:11:39;14.10;;;7.13;;
21798;SDS011;24973;47.178;15.316;2023-01-09T12:14:37;10.00;;;8.47;;
21798;SDS011;24973;47.178;15.316;2023-01-09T12:17:48;11.37;;;7.87;;
21798;SDS011;24973;47.178;15.316;2023-01-09T12:20:58;11.57;;;6.70;;
21798;SDS011;24973;47.178;15.316;2023-01-09T12:27:45;8.90;;;7.37;;
21798;SDS011;24973;47.178;15.316;2023-01-09T12:30:56;8.13;;;5.77;;
21798;SDS011;24973;47.178;15.316;2023-01-09T12:34:02;10.87;;;7.20;;
21798;SDS011;24973;47.178;15.316;2023-01-09T12:37:12;11.10;;;6.53;;
21798;SDS011;24973;47.178;15.316;2023-01-09T12:40:25;10.53;;;6.07;;
21798;SDS011;24973;47.178;15.316;2023-01-09T12:43:38;11.73;;;8.43;;
21798;SDS011;24973;47.178;15.316;2023-01-09T12:46:41;11.87;;;8.63;;
21798;SDS011;24973;47.178;15.316;2023-01-09T12:49:41;9.57;;;8.03;;
21798;SDS011;24973;47.178;15.316;2023-01-09T12:52:39;13.87;;;7.67;;
21798;SDS011;24973;47.178;15.316;2023-01-09T12:55:33;6.80;;;6.07;;
21798;SDS011;24973;47.178;15.316;2023-01-09T12:58:30;7.60;;;6.80;;
21798;SDS011;24973;47.178;15.316;2023-01-09T13:01:27;8.83;;;7.30;;
21798;SDS011;24973;47.178;15.316;2023-01-09T13:04:22;15.63;;;8.87;;
21798;SDS011;24973;47.178;15.316;2023-01-09T13:07:17;8.03;;;6.50;;
21798;SDS011;24973;47.178;15.316;2023-01-09T13:10:13;9.27;;;6.50;;
21798;SDS011;24973;47.178;15.316;2023-01-09T13:13:12;9.10;;;5.43;;
21798;SDS011;24973;47.178;15.316;2023-01-09T13:16:09;13.23;;;6.40;;
21798;SDS011;24973;47.178;15.316;2023-01-09T13:19:02;7.57;;;5.37;;
21798;SDS011;24973;47.178;15.316;2023-01-09T13:21:58;7.97;;;6.83;;
21798;SDS011;24973;47.178;15.316;2023-01-09T13:24:56;9.93;;;7.17;;
21798;SDS011;24973;47.178;15.316;2023-01-09T13:28:13;12.20;;;6.13;;
21798;SDS011;24973;47.178;15.316;2023-01-09T13:31:23;8.20;;;6.33;;
21798;SDS011;24973;47.178;15.316;2023-01-09T13:34:25;7.10;;;5.17;;
21798;SDS011;24973;47.178;15.316;2023-01-09T13:37:19;7.90;;;5.67;;
21798;SDS011;24973;47.178;15.316;2023-01-09T13:40:24;6.40;;;5.20;;
21798;SDS011;24973;47.178;15.316;2023-01-09T13:43:18;6.77;;;5.13;;
21798;SDS011;24973;47.178;15.316;2023-01-09T13:46:07;10.10;;;6.70;;
21798;SDS011;24973;47.178;15.316;2023-01-09T13:48:56;7.20;;;6.20;;
21798;SDS011;24973;47.178;15.316;2023-01-09T13:51:55;9.07;;;7.67;;
21798;SDS011;24973;47.178;15.316;2023-01-09T13:54:59;12.77;;;8.60;;
21798;SDS011;24973;47.178;15.316;2023-01-09T13:58:22;10.13;;;8.73;;
21798;SDS011;24973;47.178;15.316;2023-01-09T14:04:41;21.50;;;14.37;;
21798;SDS011;24973;47.178;15.316;2023-01-09T14:07:31;17.20;;;12.27;;
21798;SDS011;24973;47.178;15.316;2023-01-09T14:10:21;13.87;;;9.17;;
21798;SDS011;24973;47.178;15.316;2023-01-09T14:13:16;15.53;;;10.43;;
21798;SDS011;24973;47.178;15.316;2023-01-09T14:16:13;11.10;;;8.67;;
21798;SDS011;24973;47.178;15.316;2023-01-09T14:19:15;20.30;;;13.03;;
21798;SDS011;24973;47.178;15.316;2023-01-09T14:22:23;21.77;;;13.47;;
21798;SDS011;24973;47.178;15.316;2023-01-09T14:25:22;18.93;;;13.40;;
21798;SDS011;24973;47.178;15.316;2023-01-09T14:28:19;13.07;;;10.27;;
21798;SDS011;24973;47.178;15.316;2023-01-09T14:31:09;13.80;;;10.33;;
21798;SDS011;24973;47.178;15.316;2023-01-09T14:34:23;16.83;;;11.33;;
21798;SDS011;24973;47.178;15.316;2023-01-09T14:37:17;14.60;;;10.73;;
21798;SDS011;24973;47.178;15.316;2023-01-09T14:40:14;12.33;;;8.70;;
21798;SDS011;24973;47.178;15.316;2023-01-09T14:43:13;6.47;;;5.50;;
21798;SDS011;24973;47.178;15.316;2023-01-09T14:46:11;2.10;;;1.90;;
21798;SDS011;24973;47.178;15.316;2023-01-09T14:49:05;1.20;;;1.20;;
21798;SDS011;24973;47.178;15.316;2023-01-09T14:52:07;1.47;;;0.60;;
21798;SDS011;24973;47.178;15.316;2023-01-09T14:55:03;0.60;;;0.60;;
21798;SDS011;24973;47.178;15.316;2023-01-09T14:58:10;0.57;;;0.57;;
21798;SDS011;24973;47.178;15.316;2023-01-09T15:01:10;0.50;;;0.50;;
21798;SDS011;24973;47.178;15.316;2023-01-09T15:04:05;9.33;;;4.43;;
21798;SDS011;24973;47.178;15.316;2023-01-09T15:07:16;2.43;;;1.43;;
21798;SDS011;24973;47.178;15.316;2023-01-09T15:10:12;0.67;;;0.60;;
21798;SDS011;24973;47.178;15.316;2023-01-09T15:13:06;0.50;;;0.50;;
21798;SDS011;24973;47.178;15.316;2023-01-09T15:16:03;0.60;;;0.40;;
21798;SDS011;24973;47.178;15.316;2023-01-09T15:18:54;0.40;;;0.40;;
21798;SDS011;24973;47.178;15.316;2023-01-09T15:21:54;0.40;;;0.40;;
21798;SDS011;24973;47.178;15.316;2023-01-09T15:24:45;1.33;;;0.40;;
21798;SDS011;24973;47.178;15.316;2023-01-09T15:27:45;1.10;;;0.73;;
21798;SDS011;24973;47.178;15.316;2023-01-09T15:30:36;0.70;;;0.60;;
21798;SDS011;24973;47.178;15.316;2023-01-09T15:33:25;2.10;;;0.50;;
21798;SDS011;24973;47.178;15.316;2023-01-09T15:36:16;1.03;;;0.70;;
21798;SDS011;24973;47.178;15.316;2023-01-09T15:39:08;0.60;;;0.50;;
21798;SDS011;24973;47.178;15.316;2023-01-09T15:41:57;1.07;;;0.93;;
21798;SDS011;24973;47.178;15.316;2023-01-09T15:45:05;0.70;;;0.70;;
21798;SDS011;24973;47.178;15.316;2023-01-09T15:48:17;0.43;;;0.43;;
21798;SDS011;24973;47.178;15.316;2023-01-09T15:51:11;0.30;;;0.30;;
21798;SDS011;24973;47.178;15.316;2023-01-09T15:54:04;0.77;;;0.50;;
21798;SDS011;24973;47.178;15.316;2023-01-09T15:56:53;0.60;;;0.43;;
21798;SDS011;24973;47.178;15.316;2023-01-09T15:59:42;0.87;;;0.80;;
21798;SDS011;24973;47.178;15.316;2023-01-09T16:02:31;0.40;;;0.40;;
21798;SDS011;24973;47.178;15.316;2023-01-09T16:05:45;0.63;;;0.63;;
21798;SDS011;24973;47.178;15.316;2023-01-09T16:08:38;1.00;;;0.83;;
21798;SDS011;24973;47.178;15.316;2023-01-09T16:11:35;0.83;;;0.57;;
21798;SDS011;24973;47.178;15.316;2023-01-09T16:14:27;0.60;;;0.40;;
21798;SDS011;24973;47.178;15.316;2023-01-09T16:17:21;2.93;;;1.17;;
21798;SDS011;24973;47.178;15.316;2023-01-09T16:20:13;1.43;;;1.33;;
21798;SDS011;24973;47.178;15.316;2023-01-09T16:23:20;1.27;;;0.47;;
21798;SDS011;24973;47.178;15.316;2023-01-09T16:26:11;1.70;;;0.97;;
21798;SDS011;24973;47.178;15.316;2023-01-09T16:29:31;1.30;;;1.10;;
21798;SDS011;24973;47.178;15.316;2023-01-09T16:32:23;3.87;;;2.23;;
21798;SDS011;24973;47.178;15.316;2023-01-09T16:35:14;3.00;;;2.20;;
21798;SDS011;24973;47.178;15.316;2023-01-09T16:38:07;1.80;;;1.70;;
21798;SDS011;24973;47.178;15.316;2023-01-09T16:41:01;1.00;;;0.97;;
21798;SDS011;24973;47.178;15.316;2023-01-09T16:44:08;3.47;;;2.13;;
21798;SDS011;24973;47.178;15.316;2023-01-09T16:46:57;4.10;;;2.50;;
21798;SDS011;24973;47.178;15.316;2023-01-09T16:49:46;13.37;;;6.30;;
21798;SDS011;24973;47.178;15.316;2023-01-09T16:52:35;8.40;;;3.03;;
21798;SDS011;24973;47.178;15.316;2023-01-09T16:55:24;4.20;;;2.30;;
21798;SDS011;24973;47.178;15.316;2023-01-09T16:58:14;1.80;;;1.70;;
21798;SDS011;24973;47.178;15.316;2023-01-09T17:01:11;0.83;;;0.83;;
21798;SDS011;24973;47.178;15.316;2023-01-09T17:04:04;0.90;;;0.90;;
21798;SDS011;24973;47.178;15.316;2023-01-09T17:06:58;0.43;;;0.43;;
21798;SDS011;24973;47.178;15.316;2023-01-09T17:09:48;0.93;;;0.60;;
21798;SDS011;24973;47.178;15.316;2023-01-09T17:12:37;0.50;;;0.50;;
21798;SDS011;24973;47.178;15.316;2023-01-09T17:15:29;0.40;;;0.40;;
21798;SDS011;24973;47.178;15.316;2023-01-09T17:18:19;0.67;;;0.60;;
21798;SDS011;24973;47.178;15.316;2023-01-09T17:21:13;0.67;;;0.67;;
21798;SDS011;24973;47.178;15.316;2023-01-09T17:24:05;1.80;;;0.70;;
21798;SDS011;24973;47.178;15.316;2023-01-09T17:27:12;1.23;;;0.63;;